Time;durP1;ratioP1;P1;durP2;ratioP2;P2;SDS_P1;SDS_P2;PMS_P1;PMS_P2;Temp;Humidity;BMP_temperature;BMP_pressure;BME280_temperature;BME280_humidity;BME280_pressure;Samples;Min_cycle;Max_cycle;Signal;HPM_P1;HPM_P2
2021/07/28 00:00:35;;;;;;;5.57;4.97;;;;;;;;;;5065452;28;20190;-84
2021/07/28 00:03:01;;;;;;;5.47;4.97;;;;;;;;;;5055220;28;20187;-84
2021/07/28 00:05:27;;;;;;;5.47;4.97;;;;;;;;;;5071874;28;20204;-84
2021/07/28 00:07:53;;;;;;;5.50;5.00;;;;;;;;;;5053047;28;20189;-84
2021/07/28 00:10:20;;;;;;;5.50;4.63;;;;;;;;;;5084328;28;20191;-84
2021/07/28 00:12:46;;;;;;;5.57;5.07;;;;;;;;;;5050633;28;20627;-83
2021/07/28 00:15:12;;;;;;;6.13;4.80;;;;;;;;;;5056165;28;20649;-84
2021/07/28 00:17:45;;;;;;;5.10;4.60;;;;;;;;;;5053961;28;20187;-84
2021/07/28 00:23:16;;;;;;;5.43;4.97;;;;;;;;;;5040619;28;20551;-84
2021/07/28 00:25:43;;;;;;;8.83;4.77;;;;;;;;;;5054813;28;20925;-84
2021/07/28 00:28:09;;;;;;;5.70;5.20;;;;;;;;;;5066261;28;20199;-84
2021/07/28 00:30:35;;;;;;;5.27;4.77;;;;;;;;;;5054558;28;20188;-84
2021/07/28 00:33:01;;;;;;;6.73;5.17;;;;;;;;;;5052562;28;20736;-84
2021/07/28 00:35:27;;;;;;;5.97;4.73;;;;;;;;;;5069049;28;20184;-84
2021/07/28 00:37:55;;;;;;;5.47;4.97;;;;;;;;;;5062298;28;20183;-84
2021/07/28 00:40:21;;;;;;;5.43;4.97;;;;;;;;;;5091437;28;20207;-82
2021/07/28 00:42:47;;;;;;;5.63;5.07;;;;;;;;;;5056078;28;20230;-83
2021/07/28 00:45:13;;;;;;;10.03;4.90;;;;;;;;;;5055131;28;20539;-84
2021/07/28 00:47:39;;;;;;;5.50;5.00;;;;;;;;;;5053752;28;20219;-84
2021/07/28 00:50:06;;;;;;;5.33;4.83;;;;;;;;;;5055819;28;20177;-84
2021/07/28 00:52:37;;;;;;;5.83;5.20;;;;;;;;;;5054482;28;20247;-84
2021/07/28 00:55:04;;;;;;;6.73;6.00;;;;;;;;;;5069862;28;20200;-84
2021/07/28 00:57:30;;;;;;;5.17;4.67;;;;;;;;;;5052862;28;20216;-84
2021/07/28 00:59:56;;;;;;;5.63;5.13;;;;;;;;;;5082816;28;20180;-84
2021/07/28 01:02:26;;;;;;;7.83;6.00;;;;;;;;;;5055400;28;20235;-83
2021/07/28 01:04:52;;;;;;;6.23;5.67;;;;;;;;;;5046102;28;20267;-84
2021/07/28 01:07:18;;;;;;;6.47;5.87;;;;;;;;;;5051636;28;20204;-84
2021/07/28 01:09:44;;;;;;;6.43;5.47;;;;;;;;;;5054682;28;20191;-84
2021/07/28 01:12:10;;;;;;;7.07;5.43;;;;;;;;;;5067739;28;20214;-84
2021/07/28 01:14:36;;;;;;;5.97;5.27;;;;;;;;;;5071470;28;20203;-84
2021/07/28 01:17:02;;;;;;;7.53;5.03;;;;;;;;;;5054538;28;20176;-83
2021/07/28 01:19:30;;;;;;;7.30;5.20;;;;;;;;;;5086943;28;20191;-84
2021/07/28 01:21:59;;;;;;;5.30;4.80;;;;;;;;;;5067745;28;20189;-82
2021/07/28 01:24:25;;;;;;;7.17;6.10;;;;;;;;;;5072674;28;20794;-82
2021/07/28 01:26:51;;;;;;;8.17;5.80;;;;;;;;;;5055292;28;20662;-84
2021/07/28 01:29:18;;;;;;;7.40;5.60;;;;;;;;;;5054874;28;20255;-84
2021/07/28 01:31:44;;;;;;;6.20;5.13;;;;;;;;;;5068433;28;20627;-84
2021/07/28 01:34:11;;;;;;;5.83;5.33;;;;;;;;;;5055917;28;20341;-83
2021/07/28 01:36:37;;;;;;;5.70;5.20;;;;;;;;;;5093146;28;20181;-83
2021/07/28 01:39:04;;;;;;;6.93;6.23;;;;;;;;;;5055105;28;20238;-82
2021/07/28 01:41:31;;;;;;;6.17;5.57;;;;;;;;;;5054018;28;20188;-84
2021/07/28 01:43:57;;;;;;;6.43;5.57;;;;;;;;;;5057823;28;20214;-84
2021/07/28 01:46:23;;;;;;;5.90;5.30;;;;;;;;;;5058199;28;20199;-84
2021/07/28 01:48:50;;;;;;;6.53;5.30;;;;;;;;;;5058106;28;20176;-84
2021/07/28 01:51:16;;;;;;;5.77;5.17;;;;;;;;;;5074568;28;20719;-83
2021/07/28 01:53:43;;;;;;;6.60;5.70;;;;;;;;;;5075802;28;20208;-84
2021/07/28 01:56:09;;;;;;;7.33;6.17;;;;;;;;;;5058450;28;20228;-84
2021/07/28 01:58:38;;;;;;;5.67;4.97;;;;;;;;;;5058565;28;20226;-83
2021/07/28 02:01:05;;;;;;;7.50;5.33;;;;;;;;;;5075707;28;20184;-84
2021/07/28 02:03:31;;;;;;;6.20;5.60;;;;;;;;;;5090484;28;20211;-84
2021/07/28 02:05:57;;;;;;;6.57;5.27;;;;;;;;;;5056694;28;20185;-83
2021/07/28 02:08:23;;;;;;;6.23;5.63;;;;;;;;;;5058658;28;20247;-84
2021/07/28 02:10:50;;;;;;;7.23;5.50;;;;;;;;;;5066586;28;20183;-83
2021/07/28 02:13:17;;;;;;;6.53;5.83;;;;;;;;;;5086872;28;20299;-84
2021/07/28 02:15:43;;;;;;;6.53;5.47;;;;;;;;;;5057126;28;20196;-82
2021/07/28 02:18:09;;;;;;;6.60;5.93;;;;;;;;;;5074461;28;20539;-82
2021/07/28 02:20:35;;;;;;;6.30;5.13;;;;;;;;;;5056977;28;20299;-84
2021/07/28 02:23:01;;;;;;;8.20;5.00;;;;;;;;;;5057437;28;20250;-81
2021/07/28 02:25:28;;;;;;;4.87;4.37;;;;;;;;;;5071701;28;20184;-81
2021/07/28 02:27:54;;;;;;;5.63;5.13;;;;;;;;;;5068786;28;20192;-82
2021/07/28 02:30:20;;;;;;;5.50;5.00;;;;;;;;;;5067740;28;20180;-84
2021/07/28 02:32:47;;;;;;;6.50;5.00;;;;;;;;;;5070072;28;20180;-83
2021/07/28 02:35:13;;;;;;;7.57;5.20;;;;;;;;;;5051414;28;20288;-83
2021/07/28 02:37:41;;;;;;;6.13;5.17;;;;;;;;;;5054285;28;20186;-83
2021/07/28 02:40:08;;;;;;;7.97;5.00;;;;;;;;;;5055881;28;20173;-83
2021/07/28 02:42:34;;;;;;;5.23;4.73;;;;;;;;;;5056715;28;20184;-83
2021/07/28 02:45:00;;;;;;;4.97;4.57;;;;;;;;;;5068514;28;20793;-84
2021/07/28 02:47:26;;;;;;;5.73;5.07;;;;;;;;;;5070602;28;20180;-83
2021/07/28 02:49:52;;;;;;;5.43;4.93;;;;;;;;;;5072033;28;20184;-84
2021/07/28 02:52:19;;;;;;;5.50;5.00;;;;;;;;;;5055894;28;20206;-84
2021/07/28 02:54:45;;;;;;;6.07;5.43;;;;;;;;;;5087209;28;20225;-83
2021/07/28 02:57:11;;;;;;;5.20;4.70;;;;;;;;;;5088573;28;20224;-83
2021/07/28 02:59:37;;;;;;;6.05;5.45;;;;;;;;;;5049943;28;20486;-83
2021/07/28 03:02:03;;;;;;;6.70;4.30;;;;;;;;;;5053575;28;20515;-83
2021/07/28 03:04:29;;;;;;;5.93;5.40;;;;;;;;;;5054922;28;20176;-83
2021/07/28 03:06:55;;;;;;;5.83;5.23;;;;;;;;;;5053590;28;20752;-83
2021/07/28 03:09:21;;;;;;;5.33;4.80;;;;;;;;;;5052418;28;20234;-83
2021/07/28 03:11:47;;;;;;;6.00;5.50;;;;;;;;;;5066563;28;20192;-83
2021/07/28 03:14:13;;;;;;;7.33;5.33;;;;;;;;;;5079245;28;20575;-83
2021/07/28 03:16:40;;;;;;;6.23;5.60;;;;;;;;;;5082933;28;20189;-83
2021/07/28 03:19:06;;;;;;;8.20;5.70;;;;;;;;;;5056486;28;20184;-83
2021/07/28 03:21:33;;;;;;;7.03;5.43;;;;;;;;;;5091555;28;20209;-83
2021/07/28 03:23:59;;;;;;;5.87;5.37;;;;;;;;;;5054003;28;20181;-84
2021/07/28 03:26:25;;;;;;;5.40;4.90;;;;;;;;;;5054682;28;20684;-84
2021/07/28 03:28:51;;;;;;;5.87;5.10;;;;;;;;;;5055738;28;20189;-83
2021/07/28 03:31:17;;;;;;;6.10;5.50;;;;;;;;;;5054251;28;20185;-83
2021/07/28 03:33:43;;;;;;;10.30;6.00;;;;;;;;;;5052626;28;20215;-83
2021/07/28 03:36:09;;;;;;;8.40;5.70;;;;;;;;;;5048134;28;20181;-84
2021/07/28 03:38:35;;;;;;;6.63;5.17;;;;;;;;;;5060406;28;20615;-83
2021/07/28 03:41:01;;;;;;;6.93;5.13;;;;;;;;;;5088394;28;20655;-83
2021/07/28 03:43:27;;;;;;;5.80;5.30;;;;;;;;;;5071566;28;20192;-83
2021/07/28 03:45:54;;;;;;;6.80;6.10;;;;;;;;;;5058336;28;20176;-84
2021/07/28 03:48:20;;;;;;;6.43;5.83;;;;;;;;;;5050607;28;20180;-83
2021/07/28 03:50:46;;;;;;;6.27;5.60;;;;;;;;;;5053249;28;20184;-83
2021/07/28 03:53:12;;;;;;;6.70;5.50;;;;;;;;;;5068162;28;20201;-84
2021/07/28 03:55:38;;;;;;;9.13;6.03;;;;;;;;;;5053819;28;20191;-83
2021/07/28 03:58:04;;;;;;;6.00;5.30;;;;;;;;;;5071285;28;20546;-84
2021/07/28 04:00:30;;;;;;;6.57;5.37;;;;;;;;;;5051826;28;20185;-84
2021/07/28 04:02:56;;;;;;;6.83;5.70;;;;;;;;;;5050269;28;20185;-83
2021/07/28 04:05:22;;;;;;;5.77;5.27;;;;;;;;;;5086487;28;20176;-83
2021/07/28 04:07:55;;;;;;;6.40;5.60;;;;;;;;;;5051684;28;20205;-83
2021/07/28 04:10:21;;;;;;;8.77;5.03;;;;;;;;;;5059938;28;20192;-84
2021/07/28 04:12:47;;;;;;;5.83;5.33;;;;;;;;;;5072574;28;20187;-83
2021/07/28 04:15:13;;;;;;;6.90;5.70;;;;;;;;;;5052750;28;20610;-84
2021/07/28 04:17:39;;;;;;;5.83;5.30;;;;;;;;;;5053383;28;20180;-83
2021/07/28 04:20:05;;;;;;;6.03;5.40;;;;;;;;;;5048659;28;20181;-83
2021/07/28 04:22:31;;;;;;;6.67;6.00;;;;;;;;;;5046457;28;20173;-83
2021/07/28 04:24:57;;;;;;;9.60;5.43;;;;;;;;;;5053168;28;20181;-83
2021/07/28 04:27:29;;;;;;;6.40;5.80;;;;;;;;;;5057472;28;20192;-84
2021/07/28 04:29:55;;;;;;;8.47;6.43;;;;;;;;;;5054967;28;20196;-83
2021/07/28 04:32:22;;;;;;;6.40;5.60;;;;;;;;;;5070581;28;20552;-83
2021/07/28 04:34:48;;;;;;;6.30;5.63;;;;;;;;;;5065068;28;20200;-83
2021/07/28 04:37:15;;;;;;;6.90;6.07;;;;;;;;;;5053286;28;20172;-83
2021/07/28 04:39:41;;;;;;;7.10;4.93;;;;;;;;;;5053265;28;20186;-83
2021/07/28 04:42:07;;;;;;;7.20;5.50;;;;;;;;;;5053386;28;20827;-83
2021/07/28 04:44:33;;;;;;;6.93;6.20;;;;;;;;;;5050525;28;20188;-83
2021/07/28 04:46:59;;;;;;;6.33;5.73;;;;;;;;;;5053537;28;20204;-83
2021/07/28 04:49:25;;;;;;;10.87;5.67;;;;;;;;;;5052191;28;20196;-83
2021/07/28 04:51:51;;;;;;;6.80;6.10;;;;;;;;;;5053394;28;20180;-81
2021/07/28 04:54:17;;;;;;;9.90;6.00;;;;;;;;;;5052851;28;20204;-83
2021/07/28 04:56:43;;;;;;;6.47;5.83;;;;;;;;;;5064990;28;21043;-83
2021/07/28 04:59:10;;;;;;;6.33;5.33;;;;;;;;;;5090744;28;20197;-83
2021/07/28 05:01:36;;;;;;;7.77;6.97;;;;;;;;;;5072092;28;20518;-83
2021/07/28 05:04:02;;;;;;;8.90;7.23;;;;;;;;;;5104428;28;20237;-83
2021/07/28 05:06:28;;;;;;;8.03;5.90;;;;;;;;;;5085915;28;20580;-84
2021/07/28 05:08:54;;;;;;;7.18;6.32;;;;;;;;;;5072860;28;20926;-83
2021/07/28 05:11:20;;;;;;;6.80;6.20;;;;;;;;;;5099186;28;20180;-83
2021/07/28 05:13:46;;;;;;;6.80;6.23;;;;;;;;;;5072996;28;20300;-83
2021/07/28 05:16:12;;;;;;;7.07;5.90;;;;;;;;;;5090755;28;20172;-84
2021/07/28 05:18:38;;;;;;;6.00;5.40;;;;;;;;;;5097425;28;20171;-83
2021/07/28 05:21:04;;;;;;;6.57;5.90;;;;;;;;;;5113343;28;20631;-83
2021/07/28 05:23:30;;;;;;;5.87;5.37;;;;;;;;;;5112714;28;20198;-83
2021/07/28 05:25:56;;;;;;;12.53;5.50;;;;;;;;;;5113521;28;20179;-83
2021/07/28 05:28:22;;;;;;;6.10;5.50;;;;;;;;;;5113672;28;20579;-83
2021/07/28 05:30:48;;;;;;;5.50;5.00;;;;;;;;;;5079639;28;20179;-84
2021/07/28 05:33:14;;;;;;;6.50;5.43;;;;;;;;;;5114063;28;20183;-83
2021/07/28 05:35:46;;;;;;;6.30;5.70;;;;;;;;;;5079253;28;20281;-83
2021/07/28 05:38:12;;;;;;;6.23;5.63;;;;;;;;;;5080289;28;20603;-83
2021/07/28 05:40:38;;;;;;;7.03;6.37;;;;;;;;;;5113887;28;20172;-84
2021/07/28 05:43:04;;;;;;;6.63;5.87;;;;;;;;;;5079992;28;20168;-83
2021/07/28 05:45:30;;;;;;;11.87;6.23;;;;;;;;;;5098526;28;20262;-83
2021/07/28 05:47:56;;;;;;;6.07;5.50;;;;;;;;;;5113853;28;20179;-84
2021/07/28 05:50:22;;;;;;;6.47;5.87;;;;;;;;;;5079553;28;20171;-83
2021/07/28 05:52:48;;;;;;;6.82;6.13;;;;;;;;;;5113447;28;20902;-83
2021/07/28 05:55:14;;;;;;;7.80;6.10;;;;;;;;;;5113733;28;20530;-83
2021/07/28 05:57:41;;;;;;;6.60;6.00;;;;;;;;;;5079340;28;20224;-83
2021/07/28 06:00:07;;;;;;;6.63;5.87;;;;;;;;;;5076057;28;20199;-83
2021/07/28 06:02:33;;;;;;;5.83;5.23;;;;;;;;;;5078355;28;20463;-84
2021/07/28 06:04:59;;;;;;;8.30;5.43;;;;;;;;;;5075763;28;20176;-84
2021/07/28 06:07:27;;;;;;;8.80;6.30;;;;;;;;;;5077035;28;20303;-83
2021/07/28 06:09:53;;;;;;;6.33;5.73;;;;;;;;;;5076346;28;20260;-83
2021/07/28 06:12:19;;;;;;;7.87;5.47;;;;;;;;;;5075844;28;20217;-84
2021/07/28 06:14:45;;;;;;;8.10;6.30;;;;;;;;;;5076350;28;20200;-83
2021/07/28 06:17:12;;;;;;;7.00;6.23;;;;;;;;;;5076468;28;20168;-84
2021/07/28 06:19:38;;;;;;;9.53;6.17;;;;;;;;;;5075752;28;20183;-83
2021/07/28 06:22:04;;;;;;;6.97;6.27;;;;;;;;;;5087828;28;20566;-85
2021/07/28 06:24:30;;;;;;;7.10;6.40;;;;;;;;;;5059096;28;20188;-84
2021/07/28 06:26:57;;;;;;;8.57;6.57;;;;;;;;;;5076623;28;20177;-83
2021/07/28 06:29:25;;;;;;;6.30;5.70;;;;;;;;;;5079573;28;20584;-84
2021/07/28 06:31:52;;;;;;;8.50;6.07;;;;;;;;;;5075923;28;20532;-84
2021/07/28 06:34:18;;;;;;;6.70;6.00;;;;;;;;;;5074712;28;20200;-84
2021/07/28 06:36:44;;;;;;;9.13;6.30;;;;;;;;;;5073500;28;20611;-83
2021/07/28 06:39:10;;;;;;;6.43;5.83;;;;;;;;;;5074497;28;20527;-83
2021/07/28 06:41:36;;;;;;;7.13;6.27;;;;;;;;;;5079548;28;20181;-83
2021/07/28 06:44:02;;;;;;;8.80;7.17;;;;;;;;;;5106439;28;20187;-83
2021/07/28 06:46:28;;;;;;;7.77;6.30;;;;;;;;;;5072177;28;20327;-84
2021/07/28 06:48:54;;;;;;;9.10;6.70;;;;;;;;;;5072391;28;20212;-83
2021/07/28 06:51:20;;;;;;;8.70;6.53;;;;;;;;;;5072134;28;20192;-83
2021/07/28 06:53:46;;;;;;;7.97;6.50;;;;;;;;;;5073695;28;20204;-83
2021/07/28 06:56:14;;;;;;;7.20;6.50;;;;;;;;;;5065337;28;20219;-83
2021/07/28 06:58:41;;;;;;;7.63;6.90;;;;;;;;;;5055959;28;20177;-83
2021/07/28 07:01:07;;;;;;;7.30;6.60;;;;;;;;;;5062511;28;20246;-83
2021/07/28 07:03:34;;;;;;;7.30;6.57;;;;;;;;;;5055686;28;20700;-83
2021/07/28 07:06:00;;;;;;;9.07;6.03;;;;;;;;;;5072664;28;20203;-83
2021/07/28 07:08:26;;;;;;;6.80;5.87;;;;;;;;;;5055766;28;20180;-84
2021/07/28 07:10:53;;;;;;;8.27;6.80;;;;;;;;;;5051512;28;20192;-83
2021/07/28 07:13:19;;;;;;;12.87;7.73;;;;;;;;;;5046134;28;20211;-83
2021/07/28 07:15:45;;;;;;;9.30;7.63;;;;;;;;;;5055582;28;20628;-83
2021/07/28 07:18:11;;;;;;;8.43;7.40;;;;;;;;;;5055822;28;20173;-83
2021/07/28 07:20:38;;;;;;;8.33;7.47;;;;;;;;;;5073487;28;20187;-83
2021/07/28 07:23:04;;;;;;;7.83;7.03;;;;;;;;;;5055536;28;20169;-83
2021/07/28 07:25:30;;;;;;;10.33;6.50;;;;;;;;;;5055402;28;20184;-83
2021/07/28 07:27:56;;;;;;;8.17;6.40;;;;;;;;;;5053163;28;20169;-83
2021/07/28 07:30:22;;;;;;;7.77;6.97;;;;;;;;;;5054856;28;20188;-83
2021/07/28 07:35:35;;;;;;;6.90;6.20;;;;;;;;;;5024688;28;20184;-83
2021/07/28 07:38:01;;;;;;;7.00;6.30;;;;;;;;;;5053456;28;20229;-83
2021/07/28 07:40:27;;;;;;;8.00;6.70;;;;;;;;;;5054988;28;20188;-83
2021/07/28 07:42:53;;;;;;;8.27;6.23;;;;;;;;;;5056360;28;20177;-83
2021/07/28 07:45:19;;;;;;;7.70;6.10;;;;;;;;;;5073972;28;20185;-81
2021/07/28 07:47:45;;;;;;;6.50;5.83;;;;;;;;;;5055560;28;20176;-83
2021/07/28 07:50:11;;;;;;;6.83;6.10;;;;;;;;;;5055096;28;20650;-81
2021/07/28 07:52:37;;;;;;;6.60;5.83;;;;;;;;;;5055790;28;20191;-81
2021/07/28 07:55:04;;;;;;;7.50;6.70;;;;;;;;;;5054786;28;20309;-80
2021/07/28 07:57:30;;;;;;;7.47;6.17;;;;;;;;;;5068742;28;20238;-82
2021/07/28 07:59:57;;;;;;;7.53;6.67;;;;;;;;;;5073397;28;20255;-81
2021/07/28 08:02:23;;;;;;;7.47;6.73;;;;;;;;;;5105798;28;20211;-81
2021/07/28 08:04:49;;;;;;;7.05;6.45;;;;;;;;;;5071657;28;20464;-81
2021/07/28 08:07:15;;;;;;;7.40;6.70;;;;;;;;;;5071340;28;20205;-81
2021/07/28 08:09:41;;;;;;;8.80;6.97;;;;;;;;;;5072420;28;20214;-81
2021/07/28 08:12:07;;;;;;;9.50;8.30;;;;;;;;;;5072417;28;20188;-81
2021/07/28 08:14:33;;;;;;;9.60;6.90;;;;;;;;;;5071771;28;20199;-81
2021/07/28 08:16:59;;;;;;;8.57;6.80;;;;;;;;;;5064514;28;20181;-82
2021/07/28 08:19:25;;;;;;;8.47;6.97;;;;;;;;;;5070945;28;20176;-82
2021/07/28 08:21:51;;;;;;;7.37;6.67;;;;;;;;;;5071331;28;20215;-80
2021/07/28 08:24:17;;;;;;;7.80;7.00;;;;;;;;;;5066267;28;20181;-81
2021/07/28 08:26:43;;;;;;;6.20;5.67;;;;;;;;;;5060493;28;20236;-81
2021/07/28 08:29:11;;;;;;;6.37;5.70;;;;;;;;;;5070582;28;20268;-82
2021/07/28 08:31:37;;;;;;;6.63;5.67;;;;;;;;;;5070688;28;20181;-85
2021/07/28 08:34:03;;;;;;;8.97;5.87;;;;;;;;;;5070201;28;20278;-82
2021/07/28 08:36:29;;;;;;;7.37;5.30;;;;;;;;;;5104053;28;20187;-82
2021/07/28 08:38:55;;;;;;;6.53;5.60;;;;;;;;;;5061809;28;20181;-81
2021/07/28 08:41:23;;;;;;;5.63;4.77;;;;;;;;;;5069856;28;20200;-82
2021/07/28 08:43:53;;;;;;;7.17;5.00;;;;;;;;;;5070687;28;20198;-84
2021/07/28 08:46:20;;;;;;;5.67;5.17;;;;;;;;;;5070095;28;20271;-84
2021/07/28 08:48:47;;;;;;;5.60;5.10;;;;;;;;;;5067188;28;20181;-82
2021/07/28 08:51:13;;;;;;;7.23;5.23;;;;;;;;;;5067290;28;20180;-82
2021/07/28 08:53:39;;;;;;;7.30;5.00;;;;;;;;;;5068888;28;20196;-84
2021/07/28 08:56:06;;;;;;;5.10;4.70;;;;;;;;;;5067312;28;20945;-82
2021/07/28 08:58:32;;;;;;;6.10;5.50;;;;;;;;;;5054108;28;20640;-84
2021/07/28 09:00:58;;;;;;;7.07;5.23;;;;;;;;;;5055065;28;20262;-82
2021/07/28 09:03:24;;;;;;;5.93;4.83;;;;;;;;;;5054384;28;20211;-82
2021/07/28 09:05:52;;;;;;;6.87;5.07;;;;;;;;;;5054968;28;20184;-83
2021/07/28 09:08:25;;;;;;;6.07;4.90;;;;;;;;;;5064982;28;20279;-82
2021/07/28 09:10:55;;;;;;;4.83;4.43;;;;;;;;;;5067165;28;20180;-84
2021/07/28 09:13:30;;;;;;;5.53;5.03;;;;;;;;;;5069468;28;20184;-82
2021/07/28 09:16:04;;;;;;;7.23;5.20;;;;;;;;;;5067850;28;20278;-82
2021/07/28 09:18:37;;;;;;;5.43;4.93;;;;;;;;;;5070036;28;20173;-82
2021/07/28 09:21:04;;;;;;;7.03;5.70;;;;;;;;;;5062641;28;20240;-83
2021/07/28 09:23:38;;;;;;;7.40;5.40;;;;;;;;;;5086821;28;20191;-83
2021/07/28 09:26:06;;;;;;;8.27;5.10;;;;;;;;;;5068761;28;20184;-82
2021/07/28 09:28:32;;;;;;;5.90;5.40;;;;;;;;;;5065302;28;20260;-85
2021/07/28 09:30:58;;;;;;;4.83;4.43;;;;;;;;;;5059835;28;20200;-84
2021/07/28 09:33:24;;;;;;;5.60;4.80;;;;;;;;;;5058912;28;20177;-84
2021/07/28 09:35:53;;;;;;;5.30;4.77;;;;;;;;;;5055564;28;20272;-83
2021/07/28 09:38:31;;;;;;;5.20;4.70;;;;;;;;;;5074775;28;20240;-83
2021/07/28 09:41:19;;;;;;;6.63;5.03;;;;;;;;;;5055715;28;20165;-85
2021/07/28 09:43:46;;;;;;;6.53;4.90;;;;;;;;;;5055866;28;20179;-84
2021/07/28 09:46:25;;;;;;;5.27;4.50;;;;;;;;;;5056090;28;20173;-82
2021/07/28 09:48:52;;;;;;;5.83;5.30;;;;;;;;;;5054099;28;20413;-82
2021/07/28 09:51:25;;;;;;;6.33;4.93;;;;;;;;;;5053963;28;20176;-84
2021/07/28 09:53:52;;;;;;;5.30;4.80;;;;;;;;;;5055067;28;20208;-83
2021/07/28 09:56:42;;;;;;;4.77;4.37;;;;;;;;;;5059541;28;20813;-82
2021/07/28 09:59:08;;;;;;;7.23;4.87;;;;;;;;;;5069211;28;20280;-83
2021/07/28 10:01:34;;;;;;;4.93;4.43;;;;;;;;;;5066683;28;20172;-83
2021/07/28 10:04:01;;;;;;;7.87;4.57;;;;;;;;;;5060164;28;20185;-83
2021/07/28 10:06:33;;;;;;;6.90;4.30;;;;;;;;;;5057830;28;20215;-83
2021/07/28 10:08:59;;;;;;;5.80;4.67;;;;;;;;;;5058101;28;20462;-84
2021/07/28 10:11:25;;;;;;;6.27;4.57;;;;;;;;;;5070083;28;20195;-85
2021/07/28 10:13:52;;;;;;;5.47;4.30;;;;;;;;;;5057437;28;20192;-85
2021/07/28 10:16:18;;;;;;;4.77;4.23;;;;;;;;;;5085212;28;20176;-82
2021/07/28 10:18:49;;;;;;;4.80;4.40;;;;;;;;;;5078580;28;20184;-85
2021/07/28 10:21:16;;;;;;;4.43;3.83;;;;;;;;;;5055720;28;20184;-84
2021/07/28 10:23:46;;;;;;;5.60;4.40;;;;;;;;;;5061561;28;20194;-85
2021/07/28 10:26:16;;;;;;;4.67;4.00;;;;;;;;;;5084384;28;20172;-85
2021/07/28 10:28:46;;;;;;;4.20;3.90;;;;;;;;;;5059648;28;20179;-85
2021/07/28 10:31:15;;;;;;;4.67;3.97;;;;;;;;;;5068454;28;20516;-85
2021/07/28 10:33:50;;;;;;;4.77;3.70;;;;;;;;;;5071388;28;20211;-85
2021/07/28 10:36:16;;;;;;;4.70;3.77;;;;;;;;;;5064848;28;20609;-85
2021/07/28 10:38:56;;;;;;;3.83;3.53;;;;;;;;;;5074676;28;20181;-83
2021/07/28 10:41:34;;;;;;;3.00;2.80;;;;;;;;;;5056678;28;20175;-85
2021/07/28 10:44:10;;;;;;;6.97;3.47;;;;;;;;;;5056536;28;20180;-85
2021/07/28 10:46:55;;;;;;;3.67;3.30;;;;;;;;;;5067869;28;20219;-84
2021/07/28 10:49:34;;;;;;;3.97;3.57;;;;;;;;;;5063707;28;20172;-85
2021/07/28 10:52:00;;;;;;;3.53;3.23;;;;;;;;;;5054110;28;20190;-84
2021/07/28 10:54:45;;;;;;;3.33;3.00;;;;;;;;;;5075885;28;20215;-85
2021/07/28 10:57:31;;;;;;;3.33;3.00;;;;;;;;;;5051109;28;20274;-84
2021/07/28 10:59:57;;;;;;;4.67;2.73;;;;;;;;;;5050375;28;20196;-85
2021/07/28 11:02:23;;;;;;;3.50;2.60;;;;;;;;;;5076022;28;20199;-81
2021/07/28 11:05:13;;;;;;;2.80;2.57;;;;;;;;;;5056195;28;20591;-80
2021/07/28 11:07:58;;;;;;;2.97;2.50;;;;;;;;;;5044039;28;20339;-85
2021/07/28 11:10:24;;;;;;;3.03;2.57;;;;;;;;;;5058956;28;20184;-83
2021/07/28 11:12:51;;;;;;;3.60;2.40;;;;;;;;;;5056029;28;20187;-82
2021/07/28 11:15:17;;;;;;;4.07;2.20;;;;;;;;;;5073319;28;20247;-81
2021/07/28 11:17:43;;;;;;;4.10;2.70;;;;;;;;;;5044493;28;20190;-83
2021/07/28 11:20:25;;;;;;;4.33;2.80;;;;;;;;;;5056089;28;20236;-82
2021/07/28 11:22:51;;;;;;;3.67;2.33;;;;;;;;;;5056648;28;20176;-82
2021/07/28 11:25:17;;;;;;;4.27;2.30;;;;;;;;;;5056557;28;20194;-82
2021/07/28 11:28:03;;;;;;;2.63;2.20;;;;;;;;;;5056304;28;20180;-80
2021/07/28 11:30:29;;;;;;;5.20;2.77;;;;;;;;;;5051113;28;20172;-81
2021/07/28 11:32:55;;;;;;;7.80;2.73;;;;;;;;;;5057592;28;20183;-83
2021/07/28 11:35:21;;;;;;;3.20;2.37;;;;;;;;;;5075893;28;20215;-81
2021/07/28 11:37:47;;;;;;;2.87;2.57;;;;;;;;;;5072978;28;20203;-80
2021/07/28 11:40:13;;;;;;;4.27;2.30;;;;;;;;;;5074440;28;20197;-80
2021/07/28 11:42:39;;;;;;;2.97;2.28;;;;;;;;;;5055251;28;20857;-79
2021/07/28 11:45:05;;;;;;;3.00;2.70;;;;;;;;;;5054806;28;20253;-79
2021/07/28 11:47:31;;;;;;;3.07;2.40;;;;;;;;;;5055842;28;20177;-82
2021/07/28 11:50:04;;;;;;;7.43;2.57;;;;;;;;;;5054933;28;20179;-83
2021/07/28 11:52:33;;;;;;;2.27;2.07;;;;;;;;;;5035699;28;20214;-82
2021/07/28 11:54:59;;;;;;;2.93;2.67;;;;;;;;;;5072258;28;20509;-82
2021/07/28 11:57:25;;;;;;;6.20;3.67;;;;;;;;;;5062978;28;20227;-82
2021/07/28 11:59:51;;;;;;;6.17;2.70;;;;;;;;;;5075968;28;20514;-83
2021/07/28 12:02:21;;;;;;;4.30;2.77;;;;;;;;;;5073995;28;20190;-82
2021/07/28 12:04:48;;;;;;;3.33;2.50;;;;;;;;;;5074107;28;20653;-84
2021/07/28 12:07:14;;;;;;;3.33;2.47;;;;;;;;;;5064247;28;20238;-83
2021/07/28 12:09:40;;;;;;;4.37;2.27;;;;;;;;;;5073116;28;20180;-83
2021/07/28 12:12:12;;;;;;;4.80;2.60;;;;;;;;;;5060446;28;20184;-82
2021/07/28 12:14:46;;;;;;;4.73;2.00;;;;;;;;;;5058171;28;20196;-82
2021/07/28 12:17:20;;;;;;;2.93;2.30;;;;;;;;;;5059390;28;20539;-83
2021/07/28 12:20:00;;;;;;;3.33;2.30;;;;;;;;;;5057466;28;20574;-83
2021/07/28 12:22:34;;;;;;;2.73;2.47;;;;;;;;;;5072902;28;20214;-83
2021/07/28 12:25:14;;;;;;;4.20;2.83;;;;;;;;;;5058102;28;20331;-83
2021/07/28 12:27:56;;;;;;;4.93;2.53;;;;;;;;;;5053022;28;20185;-82
2021/07/28 12:30:23;;;;;;;2.87;2.43;;;;;;;;;;5055879;28;20209;-83
2021/07/28 12:32:52;;;;;;;5.80;2.53;;;;;;;;;;5066223;28;21023;-82
2021/07/28 12:35:21;;;;;;;4.47;3.17;;;;;;;;;;5054352;28;20226;-82
2021/07/28 12:38:06;;;;;;;2.87;2.30;;;;;;;;;;5054035;28;20264;-82
2021/07/28 12:40:33;;;;;;;5.20;2.87;;;;;;;;;;5062537;28;20208;-84
2021/07/28 12:42:59;;;;;;;3.47;2.33;;;;;;;;;;5054080;28;20196;-83
2021/07/28 12:45:25;;;;;;;3.30;2.50;;;;;;;;;;5058859;28;20637;-83
2021/07/28 12:47:51;;;;;;;6.83;2.90;;;;;;;;;;5055351;28;20265;-82
2021/07/28 12:50:18;;;;;;;3.63;2.20;;;;;;;;;;5057688;28;20629;-80
2021/07/28 12:52:44;;;;;;;2.20;2.00;;;;;;;;;;5057976;28;20210;-82
2021/07/28 12:55:10;;;;;;;3.00;1.83;;;;;;;;;;5071689;28;20281;-81
2021/07/28 12:57:36;;;;;;;2.07;1.77;;;;;;;;;;5070767;28;20216;-81
2021/07/28 13:00:03;;;;;;;4.10;1.90;;;;;;;;;;5083868;28;20528;-84
2021/07/28 13:02:29;;;;;;;3.50;2.00;;;;;;;;;;5091361;28;20168;-80
2021/07/28 13:04:57;;;;;;;2.33;1.60;;;;;;;;;;5088002;28;20211;-79
2021/07/28 13:10:12;;;;;;;1.93;1.50;;;;;;;;;;5061198;28;20667;-78
2021/07/28 13:12:38;;;;;;;3.07;2.37;;;;;;;;;;5080553;28;20191;-78
2021/07/28 13:15:04;;;;;;;4.13;1.83;;;;;;;;;;5097332;28;20199;-79
2021/07/28 13:17:30;;;;;;;1.67;1.57;;;;;;;;;;5106255;28;20208;-78
2021/07/28 13:19:56;;;;;;;2.10;1.80;;;;;;;;;;5093893;28;20618;-79
2021/07/28 13:22:22;;;;;;;3.87;1.90;;;;;;;;;;5090936;28;20659;-80
2021/07/28 13:24:48;;;;;;;3.10;1.60;;;;;;;;;;5106472;28;20559;-79
2021/07/28 13:27:14;;;;;;;2.80;1.70;;;;;;;;;;5089965;28;20184;-79
2021/07/28 13:29:40;;;;;;;3.43;2.03;;;;;;;;;;5094321;28;20188;-79
2021/07/28 13:32:07;;;;;;;2.77;1.47;;;;;;;;;;5075257;28;20279;-80
2021/07/28 13:34:33;;;;;;;2.03;1.77;;;;;;;;;;5106143;28;20249;-80
2021/07/28 13:37:02;;;;;;;3.07;2.10;;;;;;;;;;5090662;28;20184;-83
2021/07/28 13:39:28;;;;;;;1.83;1.67;;;;;;;;;;5093361;28;20635;-80
2021/07/28 13:41:54;;;;;;;1.97;1.40;;;;;;;;;;5094389;28;20175;-79
2021/07/28 13:44:20;;;;;;;1.83;1.60;;;;;;;;;;5094535;28;20187;-80
2021/07/28 13:46:46;;;;;;;3.50;1.83;;;;;;;;;;5082070;28;20240;-80
2021/07/28 13:49:12;;;;;;;4.73;2.60;;;;;;;;;;5111407;28;20190;-80
2021/07/28 13:51:38;;;;;;;2.77;2.33;;;;;;;;;;5099647;28;20180;-81
2021/07/28 13:54:04;;;;;;;2.10;1.90;;;;;;;;;;5077162;28;20550;-80
2021/07/28 13:56:30;;;;;;;4.70;1.80;;;;;;;;;;5072794;28;20714;-79
2021/07/28 13:58:56;;;;;;;9.67;1.70;;;;;;;;;;5073992;28;20173;-79
2021/07/28 14:01:24;;;;;;;1.97;1.70;;;;;;;;;;5074911;28;20191;-79
2021/07/28 14:03:50;;;;;;;2.83;1.60;;;;;;;;;;5077330;28;20187;-80
2021/07/28 14:06:16;;;;;;;2.33;1.73;;;;;;;;;;5078804;28;20903;-79
2021/07/28 14:08:42;;;;;;;3.20;1.50;;;;;;;;;;5075523;28;20276;-79
2021/07/28 14:11:08;;;;;;;1.77;1.60;;;;;;;;;;5070814;28;20189;-80
2021/07/28 14:13:35;;;;;;;3.40;1.70;;;;;;;;;;5068115;28;20184;-79
2021/07/28 14:16:01;;;;;;;3.70;1.73;;;;;;;;;;5075335;28;20191;-79
2021/07/28 14:18:27;;;;;;;2.60;1.63;;;;;;;;;;5078406;28;20190;-79
2021/07/28 14:20:53;;;;;;;2.53;1.70;;;;;;;;;;5079108;28;20522;-78
2021/07/28 14:23:19;;;;;;;2.07;1.87;;;;;;;;;;5066719;28;20243;-79
2021/07/28 14:25:45;;;;;;;1.70;1.60;;;;;;;;;;5078815;28;20187;-79
2021/07/28 14:28:11;;;;;;;2.10;1.63;;;;;;;;;;5071888;28;20203;-78
2021/07/28 14:30:37;;;;;;;1.93;1.40;;;;;;;;;;5076108;28;20187;-79
2021/07/28 14:33:03;;;;;;;2.20;2.00;;;;;;;;;;5069256;28;20215;-80
2021/07/28 14:35:29;;;;;;;2.67;1.93;;;;;;;;;;5071642;28;20217;-80
2021/07/28 14:37:55;;;;;;;3.20;2.50;;;;;;;;;;5072164;28;20177;-79
2021/07/28 14:40:22;;;;;;;3.93;2.10;;;;;;;;;;5073887;28;20181;-79
2021/07/28 14:42:48;;;;;;;4.53;1.60;;;;;;;;;;5078752;28;20178;-79
2021/07/28 14:45:14;;;;;;;2.93;1.87;;;;;;;;;;5072097;28;20200;-80
2021/07/28 14:47:42;;;;;;;3.87;1.70;;;;;;;;;;5073517;28;20188;-79
2021/07/28 14:50:08;;;;;;;2.97;1.50;;;;;;;;;;5077310;28;20184;-79
2021/07/28 14:52:34;;;;;;;4.20;1.90;;;;;;;;;;5075428;28;20565;-80